createdAt,value
2019-03-28T00:00:51.579Z,101674.16
2019-03-28T00:03:19.765Z,101675.65
2019-03-28T00:05:47.233Z,101673.66
2019-03-28T00:08:15.111Z,101673.16
2019-03-28T00:10:43.100Z,101669.72
2019-03-28T00:13:10.630Z,101669.33
2019-03-28T00:15:41.038Z,101669.33
2019-03-28T00:18:08.633Z,101669.78
2019-03-28T00:20:36.560Z,101667.61
2019-03-28T00:23:41.151Z,101667.61
2019-03-28T00:26:09.120Z,101660.87
2019-03-28T00:28:37.034Z,101666.67
2019-03-28T00:31:04.735Z,101667.52
2019-03-28T00:33:32.487Z,101667.52
2019-03-28T00:36:00.078Z,101660.87
2019-03-28T00:38:27.576Z,101664.86
2019-03-28T00:40:55.235Z,101664.41
2019-03-28T00:43:23.216Z,101668.78
2019-03-28T00:45:50.744Z,101662.53
2019-03-28T00:48:21.009Z,101662.53
2019-03-28T00:50:48.497Z,101668.17
2019-03-28T00:53:19.146Z,101668.17
2019-03-28T00:55:49.140Z,101669.50
2019-03-28T00:58:16.905Z,101666.00
2019-03-28T01:00:44.516Z,101667.78
2019-03-28T01:03:13.675Z,101667.78
2019-03-28T01:05:42.233Z,101665.58
2019-03-28T01:08:13.430Z,101663.02
2019-03-28T01:10:41.038Z,101668.78
2019-03-28T01:13:08.877Z,101668.78
2019-03-28T01:15:36.406Z,101668.78
2019-03-28T01:18:03.995Z,101668.78
2019-03-28T01:20:31.529Z,101663.08
2019-03-28T01:22:59.139Z,101663.53
2019-03-28T01:25:27.469Z,101644.63
2019-03-28T01:27:55.071Z,101644.63
2019-03-28T01:30:22.815Z,101646.47
2019-03-28T01:32:53.203Z,101642.16
2019-03-28T01:35:21.587Z,101641.86
2019-03-28T01:37:49.114Z,101638.94
2019-03-28T01:40:22.092Z,101629.85
2019-03-28T01:42:47.212Z,101629.85
2019-03-28T01:45:14.740Z,101627.80
2019-03-28T01:47:43.172Z,101636.77
2019-03-28T01:50:11.050Z,101645.36
2019-03-28T01:52:45.576Z,101638.59
2019-03-28T01:55:16.678Z,101634.77
2019-03-28T01:57:44.484Z,101639.51
2019-03-28T02:00:12.414Z,101639.51
2019-03-28T02:02:40.112Z,101632.66
2019-03-28T02:05:07.605Z,101633.69
2019-03-28T02:07:35.467Z,101636.00
2019-03-28T02:10:02.925Z,101637.34
2019-03-28T02:12:31.137Z,101642.16
2019-03-28T02:14:58.947Z,101642.16
2019-03-28T02:17:26.867Z,101644.30
2019-03-28T02:19:54.726Z,101644.70
2019-03-28T02:22:22.582Z,101644.70
2019-03-28T02:24:50.099Z,101637.45
2019-03-28T02:27:23.815Z,101639.56
2019-03-28T02:29:50.146Z,101639.56
2019-03-28T02:32:17.757Z,101644.73
2019-03-28T02:34:48.840Z,101645.06
2019-03-28T02:37:14.530Z,101645.06
2019-03-28T02:39:45.175Z,101639.69
2019-03-28T02:42:13.093Z,101645.39
2019-03-28T02:44:40.679Z,101639.30
2019-03-28T02:47:08.227Z,101639.30
2019-03-28T02:49:36.127Z,101639.30
2019-03-28T02:52:06.641Z,101644.61
2019-03-28T02:54:34.142Z,101644.06
2019-03-28T02:57:01.975Z,101644.06
2019-03-28T02:59:29.571Z,101648.44
2019-03-28T03:01:57.020Z,101654.92
2019-03-28T03:04:24.538Z,101651.60
2019-03-28T03:06:52.342Z,101662.62
2019-03-28T03:09:19.950Z,101662.62
2019-03-28T03:11:47.480Z,101655.59
2019-03-28T03:14:15.102Z,101657.86
2019-03-28T03:16:42.922Z,101657.86
2019-03-28T03:19:10.502Z,101662.78
2019-03-28T03:21:38.125Z,101662.78
2019-03-28T03:24:05.697Z,101661.51
2019-03-28T03:26:34.917Z,101663.84
2019-03-28T03:29:02.528Z,101664.77
2019-03-28T03:31:30.058Z,101665.31
2019-03-28T03:33:57.637Z,101668.03
2019-03-28T03:36:25.512Z,101663.72
2019-03-28T03:38:53.039Z,101662.81
2019-03-28T03:41:20.489Z,101668.64
2019-03-28T03:43:49.674Z,101672.17
2019-03-28T03:46:17.300Z,101668.24
2019-03-28T03:48:45.271Z,101669.17
2019-03-28T03:51:12.826Z,101669.17
2019-03-28T03:53:40.439Z,101665.34
2019-03-28T03:56:08.011Z,101664.53
2019-03-28T03:58:35.551Z,101665.95
2019-03-28T04:01:03.073Z,101673.97
2019-03-28T04:03:30.691Z,101676.35
2019-03-28T04:05:58.444Z,101676.84
2019-03-28T04:08:27.008Z,101676.84
2019-03-28T04:10:54.731Z,101679.22
2019-03-28T04:13:22.261Z,101679.22
2019-03-28T04:15:50.063Z,101683.29
2019-03-28T04:18:21.710Z,101688.12
2019-03-28T04:20:46.903Z,101692.98
2019-03-28T04:23:14.715Z,101692.98
2019-03-28T04:25:43.051Z,101689.00
2019-03-28T04:28:10.574Z,101692.50
2019-03-28T04:30:38.241Z,101694.70
2019-03-28T04:33:06.041Z,101695.16
2019-03-28T04:35:33.637Z,101691.11
2019-03-28T04:38:01.196Z,101695.55
2019-03-28T04:40:28.790Z,101695.55
2019-03-28T04:42:56.639Z,101697.20
2019-03-28T04:45:24.245Z,101703.34
2019-03-28T04:47:51.858Z,101700.20
2019-03-28T04:50:19.671Z,101700.20
2019-03-28T04:52:47.181Z,101694.44
2019-03-28T04:55:15.044Z,101700.20
2019-03-28T04:57:42.599Z,101702.41
2019-03-28T05:00:10.482Z,101707.32
2019-03-28T05:02:38.139Z,101704.73
2019-03-28T05:05:06.405Z,101706.11
2019-03-28T05:07:34.164Z,101706.11
2019-03-28T05:10:01.981Z,101711.03
2019-03-28T05:12:29.538Z,101712.36
2019-03-28T05:14:57.084Z,101720.72
2019-03-28T05:17:24.705Z,101719.88
2019-03-28T05:19:52.588Z,101719.93
2019-03-28T05:22:20.119Z,101717.39
2019-03-28T05:24:47.706Z,101719.80
2019-03-28T05:27:16.613Z,101726.04
2019-03-28T05:29:44.935Z,101726.04
2019-03-28T05:32:12.400Z,101724.71
2019-03-28T05:34:40.057Z,101725.11
2019-03-28T05:37:11.094Z,101726.04
2019-03-28T05:39:38.588Z,101730.42
2019-03-28T05:42:06.100Z,101734.40
2019-03-28T05:44:33.898Z,101732.14
2019-03-28T05:47:01.803Z,101732.08
2019-03-28T05:49:29.414Z,101735.08
2019-03-28T05:51:57.696Z,101738.86
2019-03-28T05:54:25.263Z,101738.86
2019-03-28T05:56:52.867Z,101741.76
2019-03-28T05:59:20.709Z,101740.38
2019-03-28T06:01:48.285Z,101735.64
2019-03-28T06:04:15.770Z,101735.64
2019-03-28T06:06:44.251Z,101740.84
2019-03-28T06:09:11.829Z,101729.86
2019-03-28T06:11:42.519Z,101729.86
2019-03-28T06:14:10.644Z,101738.50
2019-03-28T06:16:38.245Z,101738.63
2019-03-28T06:19:05.769Z,101736.16
2019-03-28T06:21:36.173Z,101735.01
2019-03-28T06:24:03.804Z,101735.01
2019-03-28T06:26:31.354Z,101730.75
2019-03-28T06:28:59.159Z,101730.47
2019-03-28T06:31:26.740Z,101730.55
2019-03-28T06:33:54.281Z,101733.59
2019-03-28T06:36:26.724Z,101733.59
2019-03-28T06:38:54.382Z,101732.66
2019-03-28T06:41:23.250Z,101734.81
2019-03-28T06:43:52.273Z,101732.00
2019-03-28T06:46:19.857Z,101732.00
2019-03-28T06:48:47.431Z,101730.57
2019-03-28T06:51:15.282Z,101723.84
2019-03-28T06:53:45.594Z,101726.92
2019-03-28T06:56:13.196Z,101723.40
2019-03-28T06:58:40.994Z,101714.87
2019-03-28T07:01:08.635Z,101707.80
2019-03-28T07:03:36.612Z,101710.61
2019-03-28T07:06:08.872Z,101714.55
2019-03-28T07:08:38.997Z,101714.55
2019-03-28T07:11:07.407Z,101710.38
2019-03-28T07:13:35.889Z,101712.41
2019-03-28T07:16:09.913Z,101712.41
2019-03-28T07:18:37.586Z,101709.39
2019-03-28T07:21:05.382Z,101713.00
2019-03-28T07:23:33.008Z,101713.00
2019-03-28T07:26:02.246Z,101719.48
2019-03-28T07:28:30.129Z,101718.03
2019-03-28T07:30:57.741Z,101723.34
2019-03-28T07:33:25.307Z,101719.22
2019-03-28T07:35:54.498Z,101718.73
2019-03-28T07:38:22.050Z,101725.08
2019-03-28T07:40:49.631Z,101718.14
2019-03-28T07:43:19.136Z,101718.14
2019-03-28T07:45:46.767Z,101728.36
2019-03-28T07:48:14.341Z,101730.58
2019-03-28T07:50:42.616Z,101730.58
2019-03-28T07:53:10.293Z,101732.04
2019-03-28T07:55:37.880Z,101736.47
2019-03-28T07:58:07.527Z,101744.71
2019-03-28T08:00:34.817Z,101747.00
2019-03-28T08:03:04.286Z,101753.55
2019-03-28T08:05:32.105Z,101751.22
2019-03-28T08:07:59.680Z,101760.97
2019-03-28T08:10:27.290Z,101767.06
2019-03-28T08:12:55.057Z,101766.20
2019-03-28T08:15:22.661Z,101766.20
2019-03-28T08:17:50.350Z,101773.82
2019-03-28T08:20:18.186Z,101777.97
2019-03-28T08:22:45.757Z,101777.97
2019-03-28T08:25:14.013Z,101777.44
2019-03-28T08:27:41.945Z,101777.44
2019-03-28T08:30:18.610Z,101779.95
2019-03-28T08:32:55.168Z,101777.29
2019-03-28T08:35:10.738Z,101777.19
2019-03-28T08:37:38.291Z,101777.19
2019-03-28T08:40:06.159Z,101775.76
2019-03-28T08:42:34.070Z,101775.76
2019-03-28T08:45:01.610Z,101776.72
2019-03-28T08:47:29.169Z,101776.70
2019-03-28T08:49:58.698Z,101779.03
2019-03-28T08:52:28.461Z,101788.05
2019-03-28T08:54:56.093Z,101788.63
2019-03-28T08:57:30.121Z,101780.09
2019-03-28T08:59:57.856Z,101783.80
2019-03-28T09:02:25.679Z,101783.80
2019-03-28T09:04:53.361Z,101794.36
2019-03-28T09:07:20.917Z,101783.66
2019-03-28T09:09:48.749Z,101782.45
2019-03-28T09:12:17.473Z,101781.74
2019-03-28T09:14:45.088Z,101778.71
2019-03-28T09:17:16.704Z,101780.74
2019-03-28T09:19:50.055Z,101780.97
2019-03-28T09:22:19.576Z,101775.93
2019-03-28T09:24:49.978Z,101777.75
2019-03-28T09:27:19.586Z,101777.47
2019-03-28T09:29:47.482Z,101779.94
2019-03-28T09:32:15.019Z,101777.93
2019-03-28T09:34:42.604Z,101776.22
2019-03-28T09:37:10.500Z,101776.22
2019-03-28T09:39:39.964Z,101768.48
2019-03-28T09:42:07.517Z,101763.20
2019-03-28T09:44:35.331Z,101767.11
2019-03-28T09:47:02.891Z,101766.79
2019-03-28T09:49:30.488Z,101765.22
2019-03-28T09:52:02.159Z,101765.22
2019-03-28T09:54:29.739Z,101760.34
2019-03-28T09:56:57.372Z,101764.53
2019-03-28T09:59:25.217Z,101760.86
2019-03-28T10:01:57.052Z,101761.33
2019-03-28T10:04:25.176Z,101761.33
2019-03-28T10:06:54.030Z,101766.48
2019-03-28T10:09:23.064Z,101767.38
2019-03-28T10:11:50.716Z,101768.12
2019-03-28T10:14:18.546Z,101768.12
2019-03-28T10:16:53.151Z,101761.15
2019-03-28T10:19:20.723Z,101757.95
2019-03-28T10:21:51.256Z,101754.05
2019-03-28T10:24:18.872Z,101747.50
2019-03-28T10:26:46.427Z,101750.64
2019-03-28T10:29:15.492Z,101750.64
2019-03-28T10:31:43.141Z,101750.65
2019-03-28T10:34:10.734Z,101740.32
2019-03-28T10:36:38.608Z,101743.73
2019-03-28T10:39:07.342Z,101742.19
2019-03-28T10:41:34.939Z,101749.95
2019-03-28T10:44:02.905Z,101742.23
2019-03-28T10:46:30.384Z,101750.12
2019-03-28T10:49:02.643Z,101752.34
2019-03-28T10:51:30.546Z,101751.72
2019-03-28T10:53:59.956Z,101748.60
2019-03-28T10:56:27.504Z,101746.86
2019-03-28T10:58:55.326Z,101748.45
2019-03-28T11:01:36.408Z,101754.76
2019-03-28T11:03:52.203Z,101754.76
2019-03-28T11:06:20.119Z,101755.57
2019-03-28T11:08:47.669Z,101755.57
2019-03-28T11:11:18.206Z,101760.55
2019-03-28T11:13:46.074Z,101753.62
2019-03-28T11:16:15.192Z,101754.44
2019-03-28T11:18:42.925Z,101755.98
2019-03-28T11:21:10.748Z,101755.98
2019-03-28T11:23:40.268Z,101759.58
2019-03-28T11:26:08.187Z,101754.02
2019-03-28T11:28:35.813Z,101754.42
2019-03-28T11:31:03.352Z,101763.72
2019-03-28T11:33:35.474Z,101763.33
2019-03-28T11:36:03.070Z,101758.53
2019-03-28T11:38:33.312Z,101763.11
2019-03-28T11:41:05.449Z,101764.42
2019-03-28T11:43:33.002Z,101768.02
2019-03-28T11:46:00.627Z,101768.15
2019-03-28T11:48:28.483Z,101763.38
2019-03-28T11:50:56.214Z,101768.16
2019-03-28T11:53:23.773Z,101763.81
2019-03-28T11:55:51.646Z,101770.03
2019-03-28T11:58:19.196Z,101761.75
2019-03-28T12:00:50.778Z,101763.23
2019-03-28T12:03:19.499Z,101766.41
2019-03-28T12:05:52.942Z,101764.12
2019-03-28T12:08:19.419Z,101764.12
2019-03-28T12:10:47.324Z,101764.02
2019-03-28T12:13:14.871Z,101764.48
2019-03-28T12:15:42.434Z,101756.47
2019-03-28T12:18:10.340Z,101762.38
2019-03-28T12:20:37.966Z,101763.72
2019-03-28T12:23:05.538Z,101763.72
2019-03-28T12:25:33.522Z,101765.47
2019-03-28T12:28:01.165Z,101762.01
2019-03-28T12:30:28.683Z,101757.23
2019-03-28T12:32:56.610Z,101757.23
2019-03-28T12:35:24.141Z,101757.23
2019-03-28T12:37:52.833Z,101752.94
2019-03-28T12:40:22.957Z,101754.94
2019-03-28T12:42:50.572Z,101754.94
2019-03-28T12:45:20.040Z,101755.97
2019-03-28T12:47:58.159Z,101749.45
2019-03-28T12:50:20.016Z,101753.16
2019-03-28T12:52:47.640Z,101750.27
2019-03-28T12:55:15.527Z,101745.77
2019-03-28T12:57:43.132Z,101747.95
2019-03-28T13:00:10.751Z,101745.92
2019-03-28T13:02:40.579Z,101750.08
2019-03-28T13:05:07.908Z,101750.08
2019-03-28T13:07:35.548Z,101742.22
2019-03-28T13:10:03.399Z,101747.21
2019-03-28T13:12:31.023Z,101747.95
2019-03-28T13:14:58.607Z,101743.94
2019-03-28T13:17:26.505Z,101738.20
2019-03-28T13:19:57.007Z,101732.09
2019-03-28T13:22:24.548Z,101734.40
2019-03-28T13:24:52.376Z,101731.22
2019-03-28T13:27:19.957Z,101729.31
2019-03-28T13:29:47.667Z,101724.33
2019-03-28T13:32:15.506Z,101729.09
2019-03-28T13:34:43.144Z,101725.58
2019-03-28T13:37:10.742Z,101722.48
2019-03-28T13:39:38.676Z,101716.75
2019-03-28T13:42:09.999Z,101721.64
2019-03-28T13:44:37.572Z,101721.73
2019-03-28T13:47:08.168Z,101725.39
2019-03-28T13:49:35.803Z,101727.69
2019-03-28T13:52:05.033Z,101725.76
2019-03-28T13:54:33.643Z,101725.76
2019-03-28T13:57:02.399Z,101720.12
2019-03-28T13:59:30.013Z,101716.09
2019-03-28T14:01:57.941Z,101711.42
2019-03-28T14:04:25.549Z,101711.92
2019-03-28T14:06:53.166Z,101712.77
2019-03-28T14:09:23.294Z,101713.73
2019-03-28T14:11:50.207Z,101706.94
2019-03-28T14:14:23.968Z,101708.05
2019-03-28T14:16:53.301Z,101708.05
2019-03-28T14:19:20.890Z,101711.11
2019-03-28T14:21:48.429Z,101710.86
2019-03-28T14:24:17.757Z,101705.69
2019-03-28T14:26:45.334Z,101705.69
2019-03-28T14:29:15.189Z,101697.64
2019-03-28T14:31:43.370Z,101696.95
2019-03-28T14:34:10.907Z,101696.95
2019-03-28T14:36:38.567Z,101694.41
2019-03-28T14:39:07.532Z,101697.55
2019-03-28T14:41:35.022Z,101695.74
2019-03-28T14:44:02.758Z,101696.95
2019-03-28T14:46:32.869Z,101694.87
2019-03-28T14:49:00.684Z,101695.09
2019-03-28T14:51:28.339Z,101700.55
2019-03-28T14:53:58.006Z,101706.09
2019-03-28T14:56:27.899Z,101704.23
2019-03-28T14:58:59.539Z,101703.28
2019-03-28T15:01:27.403Z,101698.33
2019-03-28T15:04:00.690Z,101693.78
2019-03-28T15:06:28.415Z,101696.14
2019-03-28T15:08:59.045Z,101693.27
2019-03-28T15:11:27.066Z,101693.42
2019-03-28T15:13:57.015Z,101693.42
2019-03-28T15:16:24.830Z,101683.77
2019-03-28T15:18:56.048Z,101688.84
2019-03-28T15:21:23.207Z,101687.22
2019-03-28T15:23:51.111Z,101690.95
2019-03-28T15:26:21.152Z,101688.28
2019-03-28T15:28:50.421Z,101688.28
2019-03-28T15:31:17.884Z,101690.68
2019-03-28T15:33:45.545Z,101691.95
2019-03-28T15:36:13.378Z,101690.53
2019-03-28T15:38:42.137Z,101693.13
2019-03-28T15:41:09.747Z,101684.73
2019-03-28T15:43:37.593Z,101685.97
2019-03-28T15:46:05.549Z,101682.37
2019-03-28T15:48:35.579Z,101688.27
2019-03-28T15:51:04.489Z,101688.27
2019-03-28T15:53:33.253Z,101690.11
2019-03-28T15:56:00.766Z,101690.11
2019-03-28T15:58:32.290Z,101690.49
2019-03-28T16:01:18.084Z,101693.55
2019-03-28T16:03:53.357Z,101686.86
2019-03-28T16:06:18.540Z,101690.12
2019-03-28T16:08:51.085Z,101690.12
2019-03-28T16:11:18.661Z,101690.32
2019-03-28T16:13:46.238Z,101690.32
2019-03-28T16:16:13.878Z,101688.69
2019-03-28T16:18:44.826Z,101685.92
2019-03-28T16:21:12.362Z,101685.92
2019-03-28T16:23:42.939Z,101688.77
2019-03-28T16:26:12.800Z,101685.72
2019-03-28T16:28:40.730Z,101686.77
2019-03-28T16:31:10.136Z,101692.40
2019-03-28T16:33:38.042Z,101692.40
2019-03-28T16:36:09.279Z,101697.80
2019-03-28T16:38:36.868Z,101693.91
2019-03-28T16:41:04.725Z,101694.94
2019-03-28T16:43:32.301Z,101694.35
2019-03-28T16:45:59.918Z,101694.35
2019-03-28T16:48:30.263Z,101695.39
2019-03-28T16:50:57.884Z,101695.89
2019-03-28T16:53:28.206Z,101688.61
2019-03-28T16:55:56.237Z,101688.61
2019-03-28T16:58:23.778Z,101694.24
2019-03-28T17:00:51.722Z,101688.14
2019-03-28T17:03:22.530Z,101687.37
2019-03-28T17:05:50.122Z,101687.37
2019-03-28T17:08:17.978Z,101688.88
2019-03-28T17:10:47.097Z,101690.33
2019-03-28T17:13:14.624Z,101683.35
2019-03-28T17:15:43.346Z,101678.09
2019-03-28T17:18:11.183Z,101669.67
2019-03-28T17:20:43.827Z,101674.64
2019-03-28T17:23:11.449Z,101674.64
2019-03-28T17:25:40.229Z,101677.89
2019-03-28T17:28:08.167Z,101688.28
2019-03-28T17:30:41.010Z,101685.30
2019-03-28T17:33:06.247Z,101692.64
2019-03-28T17:35:33.865Z,101697.69
2019-03-28T17:38:01.828Z,101701.09
2019-03-28T17:40:29.457Z,101701.09
2019-03-28T17:43:00.146Z,101697.20
2019-03-28T17:45:28.063Z,101699.57
2019-03-28T17:47:55.703Z,101699.27
2019-03-28T17:50:23.330Z,101700.80
2019-03-28T17:52:51.190Z,101700.77
2019-03-28T17:55:19.795Z,101700.77
2019-03-28T17:57:47.552Z,101711.72
2019-03-28T18:00:15.397Z,101711.72
2019-03-28T18:02:43.420Z,101706.15
2019-03-28T18:05:15.263Z,101711.76
2019-03-28T18:07:40.546Z,101711.76
2019-03-28T18:10:11.338Z,101713.17
2019-03-28T18:12:39.655Z,101704.48
2019-03-28T18:15:07.533Z,101712.29
2019-03-28T18:17:35.045Z,101712.29
2019-03-28T18:20:02.641Z,101706.19
2019-03-28T18:22:30.621Z,101709.39
2019-03-28T18:25:07.924Z,101714.84
2019-03-28T18:27:35.634Z,101710.04
2019-03-28T18:30:05.527Z,101715.95
2019-03-28T18:32:34.118Z,101712.52
2019-03-28T18:35:05.792Z,101712.20
2019-03-28T18:37:31.199Z,101712.20
2019-03-28T18:39:58.794Z,101717.16
2019-03-28T18:42:26.346Z,101714.95
2019-03-28T18:44:57.777Z,101711.59
2019-03-28T18:47:27.243Z,101716.09
2019-03-28T18:49:55.217Z,101716.09
2019-03-28T18:52:23.054Z,101719.22
2019-03-28T18:54:50.698Z,101719.22
2019-03-28T18:57:19.742Z,101719.94
2019-03-28T18:59:50.656Z,101719.94
2019-03-28T19:02:18.204Z,101720.58
2019-03-28T19:04:45.807Z,101716.45
2019-03-28T19:07:13.670Z,101716.45
2019-03-28T19:09:41.330Z,101715.22
2019-03-28T19:12:11.148Z,101711.27
2019-03-28T19:14:41.864Z,101708.28
2019-03-28T19:17:09.551Z,101709.23
2019-03-28T19:19:39.500Z,101710.06
2019-03-28T19:22:09.309Z,101710.20
2019-03-28T19:24:36.919Z,101710.20
2019-03-28T19:27:04.503Z,101714.78
2019-03-28T19:29:32.372Z,101714.78
2019-03-28T19:32:00.109Z,101718.70
2019-03-28T19:34:29.993Z,101718.70
2019-03-28T19:36:57.896Z,101715.47
2019-03-28T19:39:26.401Z,101715.47
2019-03-28T19:42:04.492Z,101712.31
2019-03-28T19:44:31.187Z,101707.47
2019-03-28T19:46:58.832Z,101711.39
2019-03-28T19:49:26.479Z,101708.88
2019-03-28T19:51:56.239Z,101704.95
2019-03-28T19:54:23.871Z,101710.47
2019-03-28T19:56:51.519Z,101707.87
2019-03-28T19:59:19.396Z,101703.10
2019-03-28T20:01:49.830Z,101703.10
2019-03-28T20:04:19.223Z,101708.05
2019-03-28T20:06:50.254Z,101703.92
2019-03-28T20:09:18.488Z,101703.92
2019-03-28T20:11:46.138Z,101695.69
2019-03-28T20:14:14.032Z,101697.70
2019-03-28T20:16:42.856Z,101697.70
2019-03-28T20:19:12.967Z,101700.30
2019-03-28T20:21:43.576Z,101707.22
2019-03-28T20:24:11.197Z,101704.17
2019-03-28T20:26:41.070Z,101704.17
2019-03-28T20:29:09.286Z,101720.16
2019-03-28T20:31:38.070Z,101717.64
2019-03-28T20:34:05.648Z,101718.97
2019-03-28T20:36:38.563Z,101716.86
2019-03-28T20:39:04.285Z,101713.05
2019-03-28T20:41:32.429Z,101713.05
2019-03-28T20:44:11.709Z,101709.19
2019-03-28T20:46:41.034Z,101708.97
2019-03-28T20:49:10.998Z,101707.17
2019-03-28T20:51:38.953Z,101707.17
2019-03-28T20:54:08.631Z,101704.45
2019-03-28T20:56:36.503Z,101707.34
2019-03-28T20:59:05.465Z,101711.61
2019-03-28T21:01:33.393Z,101710.58
2019-03-28T21:04:01.017Z,101709.90
2019-03-28T21:06:28.820Z,101710.55
2019-03-28T21:08:56.459Z,101712.48
2019-03-28T21:11:24.087Z,101709.55
2019-03-28T21:13:51.827Z,101709.55
2019-03-28T21:16:19.456Z,101712.26
2019-03-28T21:18:47.417Z,101709.16
2019-03-28T21:21:15.769Z,101709.79
2019-03-28T21:23:46.474Z,101714.05
2019-03-28T21:26:15.958Z,101714.05
2019-03-28T21:28:47.530Z,101714.80
2019-03-28T21:31:16.171Z,101712.74
2019-03-28T21:33:44.258Z,101722.91
2019-03-28T21:36:12.530Z,101722.91
2019-03-28T21:38:40.411Z,101719.19
2019-03-28T21:41:08.021Z,101715.81
2019-03-28T21:43:36.879Z,101713.81
2019-03-28T21:46:04.440Z,101713.81
2019-03-28T21:48:33.350Z,101723.50
2019-03-28T21:51:01.222Z,101722.43
2019-03-28T21:53:28.689Z,101722.43
2019-03-28T21:55:58.169Z,101724.83
2019-03-28T21:58:28.727Z,101722.83
2019-03-28T22:00:56.363Z,101722.82
2019-03-28T22:03:25.898Z,101722.82
2019-03-28T22:05:55.195Z,101724.90
2019-03-28T22:08:22.753Z,101724.90
2019-03-28T22:10:50.363Z,101737.48
2019-03-28T22:13:19.367Z,101730.64
2019-03-28T22:15:47.588Z,101730.64
2019-03-28T22:18:16.494Z,101740.80
2019-03-28T22:20:44.395Z,101740.80
2019-03-28T22:23:13.583Z,101738.53
2019-03-28T22:25:41.347Z,101738.53
2019-03-28T22:28:09.250Z,101739.08
2019-03-28T22:30:37.141Z,101739.08
2019-03-28T22:33:04.771Z,101742.95
2019-03-28T22:35:33.719Z,101740.21
2019-03-28T22:38:02.391Z,101733.81
2019-03-28T22:40:30.315Z,101741.55
2019-03-28T22:42:58.616Z,101736.92
2019-03-28T22:45:26.511Z,101730.77
2019-03-28T22:47:54.471Z,101730.77
2019-03-28T22:50:22.060Z,101734.05
2019-03-28T22:52:49.580Z,101731.57
2019-03-28T22:55:17.416Z,101727.86
2019-03-28T22:57:44.995Z,101726.79
2019-03-28T23:00:12.661Z,101730.39
2019-03-28T23:02:40.508Z,101730.39
2019-03-28T23:05:08.049Z,101720.27
2019-03-28T23:07:35.573Z,101720.27
2019-03-28T23:10:03.484Z,101727.42
2019-03-28T23:12:31.043Z,101730.19
2019-03-28T23:15:01.013Z,101736.56
2019-03-28T23:17:31.950Z,101736.56
2019-03-28T23:19:59.554Z,101735.53
2019-03-28T23:22:27.179Z,101729.97
2019-03-28T23:24:54.796Z,101729.97
2019-03-28T23:27:24.838Z,101736.17
2019-03-28T23:29:52.452Z,101733.26
2019-03-28T23:32:24.628Z,101731.65
2019-03-28T23:34:52.170Z,101724.44
2019-03-28T23:37:24.910Z,101725.52
2019-03-28T23:39:52.710Z,101725.52
2019-03-28T23:42:20.248Z,101723.43
2019-03-28T23:44:47.888Z,101729.64
2019-03-28T23:47:17.410Z,101729.31
2019-03-28T23:49:45.306Z,101729.31
2019-03-28T23:52:12.873Z,101723.42
2019-03-28T23:54:40.505Z,101721.73
2019-03-28T23:57:11.234Z,101721.73
2019-03-28T23:59:39.254Z,101726.66
